FWKI/LLW METAR and TAF weather

Enter ICAO airport designator
Station Type Date Time Source
FWKI METAR 2019/06/16 06:00 UTC NOAA

FWKI 160600Z 17012KT 9999 SCT020 BKN090 13/10 Q1027 NOSIG


Station Type Date Time Source
FWKI Decoded METAR 2019/06/16 06:00 UTC NOAA

Lilongwe International Airport, Malawi (FWKI) 13-47S 033-46E 1229M
Jun 16, 2019 - 02:00 AM EDT / 2019.06.16 0600 UTC
Wind: from the S (170 degrees) at 14 MPH (12 KT):0
Visibility: greater than 7 mile(s):0
Sky conditions: mostly cloudy
Temperature: 55 F (13 C)
Dew Point: 50 F (10 C)
Relative Humidity: 81%
Pressure (altimeter): 30.33 in. Hg (1027 hPa)
ob: FWKI 160600Z 17012KT 9999 SCT020 BKN090 13/10 Q1027 NOSIG
cycle: 6

Station Type Date Time Source
FWKI TAF 2019/06/16 06:42 UTC NOAA

TAF TAF FWKI 160400Z 1606/1712 14006KT 9999 BKN025
BECMG 1616/1618 FEW025 SCT090
FM161900 10009KT CAVOK

Example: see airport list